createdAt,value
2018-12-16T00:01:04.679Z,21.97
2018-12-16T00:03:31.709Z,23.30
2018-12-16T00:05:58.519Z,22.57
2018-12-16T00:08:24.740Z,23.53
2018-12-16T00:10:51.281Z,22.67
2018-12-16T00:13:17.578Z,26.03
2018-12-16T00:15:43.854Z,22.13
2018-12-16T00:18:10.171Z,23.97
2018-12-16T00:20:36.449Z,26.40
2018-12-16T00:23:02.749Z,25.00
2018-12-16T00:25:29.035Z,25.13
2018-12-16T00:27:56.066Z,25.27
2018-12-16T00:30:22.376Z,25.40
2018-12-16T00:32:49.352Z,22.97
2018-12-16T00:35:15.602Z,24.20
2018-12-16T00:37:41.810Z,28.00
2018-12-16T00:46:07.656Z,24.07
2018-12-16T00:48:33.882Z,22.57
2018-12-16T00:51:00.107Z,23.83
2018-12-16T00:53:26.357Z,26.30
2018-12-16T00:55:52.610Z,24.23
2018-12-16T00:58:18.835Z,21.97
2018-12-16T01:00:45.116Z,24.33
2018-12-16T01:03:11.359Z,24.70
2018-12-16T01:05:37.609Z,24.37
2018-12-16T01:08:03.861Z,23.77
2018-12-16T01:10:30.411Z,25.77
2018-12-16T01:12:57.361Z,24.17
2018-12-16T01:15:24.312Z,23.73
2018-12-16T01:17:51.438Z,24.40
2018-12-16T01:20:17.684Z,22.77
2018-12-16T01:22:43.911Z,23.60
2018-12-16T01:25:10.939Z,22.20
2018-12-16T01:27:37.184Z,25.13
2018-12-16T01:30:03.437Z,22.47
2018-12-16T01:32:29.687Z,24.50
2018-12-16T01:34:55.886Z,23.67
2018-12-16T01:37:22.144Z,24.37
2018-12-16T01:39:48.382Z,24.07
2018-12-16T01:42:14.605Z,26.37
2018-12-16T01:44:40.853Z,24.37
2018-12-16T01:47:07.860Z,22.53
2018-12-16T01:49:34.075Z,23.73
2018-12-16T01:52:00.335Z,23.63
2018-12-16T01:54:26.559Z,26.23
2018-12-16T01:56:52.938Z,24.70
2018-12-16T01:59:19.186Z,24.67
2018-12-16T02:01:51.496Z,28.37
2018-12-16T02:04:17.973Z,24.43
2018-12-16T02:06:44.219Z,21.30
2018-12-16T02:09:10.490Z,24.87
2018-12-16T02:11:36.732Z,25.40
2018-12-16T02:14:03.200Z,26.60
2018-12-16T02:16:29.405Z,25.77
2018-12-16T02:18:56.352Z,23.60
2018-12-16T02:21:23.314Z,25.17
2018-12-16T02:23:49.560Z,27.77
2018-12-16T02:26:16.018Z,24.60
2018-12-16T02:28:42.348Z,25.40
2018-12-16T02:31:10.066Z,25.77
2018-12-16T02:33:36.294Z,24.17
2018-12-16T02:36:02.595Z,23.23
2018-12-16T02:38:29.581Z,23.27
2018-12-16T02:40:55.789Z,24.57
2018-12-16T02:43:22.028Z,27.07
2018-12-16T02:45:48.359Z,23.77
2018-12-16T02:48:15.533Z,26.20
2018-12-16T02:50:41.745Z,25.83
2018-12-16T02:53:08.897Z,25.17
2018-12-16T02:55:35.144Z,25.03
2018-12-16T02:58:01.359Z,25.43
2018-12-16T03:00:27.560Z,22.43
2018-12-16T03:02:53.781Z,25.87
2018-12-16T03:05:20.048Z,23.63
2018-12-16T03:07:46.275Z,23.17
2018-12-16T03:10:12.510Z,23.57
2018-12-16T03:12:45.928Z,24.27
2018-12-16T03:15:12.168Z,23.70
2018-12-16T03:20:05.300Z,24.07
2018-12-16T03:22:31.592Z,26.60
2018-12-16T03:24:57.840Z,24.03
2018-12-16T03:27:24.058Z,23.70
2018-12-16T03:29:50.279Z,23.23
2018-12-16T03:32:16.505Z,26.50
2018-12-16T03:34:42.755Z,24.60
2018-12-16T03:37:09.009Z,24.60
2018-12-16T03:39:35.248Z,22.93
2018-12-16T03:42:02.729Z,25.73
2018-12-16T03:44:29.045Z,29.80
2018-12-16T03:46:55.273Z,24.50
2018-12-16T03:49:22.224Z,25.50
2018-12-16T03:51:49.200Z,26.27
2018-12-16T03:54:15.528Z,25.60
2018-12-16T03:56:41.735Z,25.03
2018-12-16T03:59:12.741Z,23.23
2018-12-16T04:01:38.970Z,26.13
2018-12-16T04:04:05.945Z,27.97
2018-12-16T04:06:32.179Z,25.60
2018-12-16T04:08:58.407Z,26.87
2018-12-16T04:11:24.652Z,27.90
2018-12-16T04:13:50.860Z,28.97
2018-12-16T04:16:17.075Z,26.90
2018-12-16T04:18:44.817Z,27.73
2018-12-16T04:21:11.766Z,28.20
2018-12-16T04:23:38.709Z,25.13
2018-12-16T04:26:04.928Z,27.87
2018-12-16T04:28:31.920Z,25.40
2018-12-16T04:30:58.128Z,26.37
2018-12-16T04:33:24.340Z,31.57
2018-12-16T04:35:51.300Z,28.07
2018-12-16T04:38:17.805Z,24.23
2018-12-16T04:40:44.019Z,25.93
2018-12-16T04:43:10.256Z,30.33
2018-12-16T04:45:36.599Z,28.10
2018-12-16T04:48:03.561Z,30.83
2018-12-16T04:50:30.044Z,26.40
2018-12-16T04:52:56.276Z,28.27
2018-12-16T04:55:23.961Z,28.40
2018-12-16T04:57:50.937Z,25.57
2018-12-16T05:00:17.166Z,28.57
2018-12-16T05:02:43.372Z,27.77
2018-12-16T05:05:10.336Z,27.93
2018-12-16T05:07:36.564Z,27.73
2018-12-16T05:10:15.288Z,26.83
2018-12-16T05:12:41.565Z,30.37
2018-12-16T05:15:07.809Z,27.23
2018-12-16T05:17:34.777Z,28.83
2018-12-16T05:20:01.030Z,28.43
2018-12-16T05:22:27.270Z,28.03
2018-12-16T05:24:54.288Z,32.10
2018-12-16T05:27:20.512Z,30.07
2018-12-16T05:29:46.728Z,27.50
2018-12-16T05:32:12.944Z,28.27
2018-12-16T05:34:39.923Z,26.13
2018-12-16T05:37:06.160Z,28.47
2018-12-16T05:39:32.371Z,26.97
2018-12-16T05:41:58.588Z,29.77
2018-12-16T05:44:24.816Z,32.60
2018-12-16T05:46:51.044Z,30.77
2018-12-16T05:49:17.261Z,28.03
2018-12-16T05:51:43.496Z,30.70
2018-12-16T05:54:09.720Z,26.20
2018-12-16T05:56:35.940Z,28.90
2018-12-16T05:59:02.171Z,27.63
2018-12-16T06:01:28.423Z,29.53
2018-12-16T06:03:54.635Z,28.90
2018-12-16T06:06:20.867Z,26.47
2018-12-16T06:08:47.101Z,25.13
2018-12-16T06:11:13.328Z,27.33
2018-12-16T06:13:39.546Z,31.43
2018-12-16T06:16:06.152Z,30.40
2018-12-16T06:18:33.109Z,30.63
2018-12-16T06:21:00.052Z,28.83
2018-12-16T06:23:27.287Z,28.83
2018-12-16T06:25:53.506Z,28.27
2018-12-16T06:28:19.717Z,29.47
2018-12-16T06:30:45.986Z,28.40
2018-12-16T06:33:12.980Z,29.77
2018-12-16T06:35:39.207Z,28.20
2018-12-16T06:38:06.455Z,26.23
2018-12-16T06:40:32.693Z,27.83
2018-12-16T06:42:59.269Z,29.93
2018-12-16T06:45:26.271Z,29.63
2018-12-16T06:47:52.480Z,30.93
2018-12-16T06:50:18.744Z,27.63
2018-12-16T06:52:44.968Z,29.20
2018-12-16T06:55:11.203Z,27.10
2018-12-16T06:57:37.431Z,26.37
2018-12-16T07:00:03.687Z,30.60
2018-12-16T07:02:29.932Z,30.40
2018-12-16T07:04:56.208Z,28.07
2018-12-16T07:07:22.416Z,25.97
2018-12-16T07:09:48.636Z,30.27
2018-12-16T07:12:14.902Z,29.27
2018-12-16T07:14:42.615Z,29.60
2018-12-16T07:17:09.755Z,31.37
2018-12-16T07:19:35.976Z,33.03
2018-12-16T07:22:02.224Z,30.13
2018-12-16T07:24:28.503Z,29.20
2018-12-16T07:26:54.762Z,33.80
2018-12-16T07:29:20.983Z,30.70
2018-12-16T07:31:47.205Z,30.23
2018-12-16T07:34:13.446Z,33.00
2018-12-16T07:36:39.711Z,32.13
2018-12-16T07:39:06.002Z,31.03
2018-12-16T07:41:32.227Z,33.30
2018-12-16T07:43:58.493Z,35.33
2018-12-16T07:46:24.884Z,36.20
2018-12-16T07:48:51.112Z,33.77
2018-12-16T07:51:17.332Z,32.33
2018-12-16T07:53:43.575Z,36.60
2018-12-16T07:56:10.626Z,34.60
2018-12-16T07:58:36.897Z,32.33
2018-12-16T08:01:03.923Z,34.47
2018-12-16T08:03:30.150Z,33.20
2018-12-16T08:05:56.391Z,33.60
2018-12-16T08:08:22.615Z,35.33
2018-12-16T08:10:48.835Z,30.73
2018-12-16T08:13:15.092Z,37.33
2018-12-16T08:15:42.061Z,33.87
2018-12-16T08:18:08.301Z,33.67
2018-12-16T08:20:34.507Z,33.97
2018-12-16T08:23:01.480Z,32.53
2018-12-16T08:25:27.769Z,40.10
2018-12-16T08:27:54.743Z,35.13
2018-12-16T08:30:21.002Z,34.47
2018-12-16T08:32:47.237Z,34.43
2018-12-16T08:35:13.490Z,34.90
2018-12-16T08:37:39.719Z,32.93
2018-12-16T08:40:06.037Z,31.50
2018-12-16T08:42:32.256Z,34.40
2018-12-16T08:44:58.604Z,32.17
2018-12-16T08:47:32.800Z,31.27
2018-12-16T08:49:51.861Z,30.00
2018-12-16T08:52:18.131Z,28.57
2018-12-16T08:54:44.421Z,32.23
2018-12-16T08:57:10.675Z,29.47
2018-12-16T08:59:37.682Z,29.60
2018-12-16T09:02:03.940Z,26.80
2018-12-16T09:04:31.140Z,28.03
2018-12-16T09:06:57.393Z,26.30
2018-12-16T09:09:23.745Z,24.30
2018-12-16T09:11:50.057Z,24.13
2018-12-16T09:14:16.297Z,25.07
2018-12-16T09:16:42.548Z,32.00
2018-12-16T09:19:08.874Z,29.47
2018-12-16T09:21:35.123Z,29.07
2018-12-16T09:24:01.373Z,27.37
2018-12-16T09:26:27.672Z,25.47
2018-12-16T09:28:54.210Z,31.33
2018-12-16T09:31:20.460Z,26.13
2018-12-16T09:33:46.671Z,25.40
2018-12-16T09:36:12.954Z,26.40
2018-12-16T09:38:39.941Z,27.30
2018-12-16T09:41:06.184Z,27.83
2018-12-16T09:43:32.423Z,25.30
2018-12-16T09:45:58.669Z,27.43
2018-12-16T09:48:24.948Z,26.33
2018-12-16T09:50:51.222Z,29.07
2018-12-16T09:53:17.435Z,30.83
2018-12-16T09:55:43.817Z,26.47
2018-12-16T09:58:10.369Z,27.80
2018-12-16T10:00:36.631Z,26.20
2018-12-16T10:03:02.877Z,27.37
2018-12-16T10:05:29.219Z,31.17
2018-12-16T10:07:55.444Z,30.70
2018-12-16T10:10:21.716Z,30.60
2018-12-16T10:12:48.974Z,30.73
2018-12-16T10:15:15.220Z,29.40
2018-12-16T10:17:41.451Z,34.17
2018-12-16T10:20:07.965Z,32.27
2018-12-16T10:22:34.355Z,32.03
2018-12-16T10:25:01.370Z,30.80
2018-12-16T10:27:27.953Z,34.67
2018-12-16T10:29:54.224Z,29.70
2018-12-16T10:32:20.455Z,32.10
2018-12-16T10:34:46.684Z,32.43
2018-12-16T10:37:12.896Z,34.87
2018-12-16T10:39:39.204Z,32.23
2018-12-16T10:42:05.456Z,36.50
2018-12-16T10:44:31.689Z,34.07
2018-12-16T10:46:57.941Z,33.90
2018-12-16T10:49:24.267Z,36.20
2018-12-16T10:51:50.479Z,36.07
2018-12-16T10:54:16.732Z,34.43
2018-12-16T10:56:43.839Z,37.07
2018-12-16T10:59:10.057Z,36.27
2018-12-16T11:01:36.316Z,36.57
2018-12-16T11:04:02.572Z,38.50
2018-12-16T11:06:28.847Z,36.20
2018-12-16T11:08:55.099Z,38.73
2018-12-16T11:11:21.366Z,38.23
2018-12-16T11:13:47.623Z,38.47
2018-12-16T11:16:14.649Z,35.67
2018-12-16T11:18:40.900Z,40.47
2018-12-16T11:21:07.127Z,42.70
2018-12-16T11:23:33.507Z,45.87
2018-12-16T11:25:59.875Z,41.47
2018-12-16T11:28:26.136Z,44.03
2018-12-16T11:30:52.428Z,45.87
2018-12-16T11:33:18.868Z,44.97
2018-12-16T11:35:45.175Z,45.90
2018-12-16T11:38:11.480Z,45.47
2018-12-16T11:40:37.712Z,44.70
2018-12-16T11:43:04.244Z,47.17
2018-12-16T11:45:30.569Z,44.27
2018-12-16T11:47:56.891Z,49.33
2018-12-16T11:50:23.230Z,46.53
2018-12-16T11:52:49.792Z,46.67
2018-12-16T11:55:16.748Z,46.67
2018-12-16T11:57:43.095Z,45.40
2018-12-16T12:00:09.435Z,45.77
2018-12-16T12:02:35.672Z,47.50
2018-12-16T12:05:01.918Z,52.00
2018-12-16T12:07:28.186Z,49.30
2018-12-16T12:09:55.156Z,51.20
2018-12-16T12:12:21.428Z,50.17
2018-12-16T12:14:47.701Z,49.40
2018-12-16T12:17:14.003Z,50.43
2018-12-16T12:19:41.207Z,50.40
2018-12-16T12:22:08.252Z,48.17
2018-12-16T12:24:34.583Z,47.50
2018-12-16T12:27:00.840Z,51.13
2018-12-16T12:29:27.879Z,52.97
2018-12-16T12:31:55.147Z,53.90
2018-12-16T12:34:21.397Z,47.83
2018-12-16T12:36:47.641Z,46.20
2018-12-16T12:39:13.991Z,52.47
2018-12-16T12:41:40.291Z,49.87
2018-12-16T12:44:06.504Z,50.77
2018-12-16T12:46:32.845Z,50.90
2018-12-16T12:51:27.688Z,49.33
2018-12-16T12:53:54.740Z,59.43
2018-12-16T12:56:21.009Z,50.10
2018-12-16T12:58:48.002Z,48.27
2018-12-16T13:01:14.313Z,48.20
2018-12-16T13:03:40.532Z,49.90
2018-12-16T13:06:06.796Z,111.20
2018-12-16T13:08:33.039Z,52.00
2018-12-16T13:11:00.029Z,55.37
2018-12-16T13:13:26.313Z,50.07
2018-12-16T13:15:52.588Z,51.90
2018-12-16T13:18:18.875Z,48.80
2018-12-16T13:20:46.096Z,54.80
2018-12-16T13:23:12.316Z,48.93
2018-12-16T13:25:50.840Z,53.93
2018-12-16T13:28:17.084Z,46.37
2018-12-16T13:30:44.201Z,48.97
2018-12-16T13:33:10.587Z,47.87
2018-12-16T13:35:37.591Z,53.20
2018-12-16T13:38:03.904Z,53.27
2018-12-16T13:40:30.425Z,51.03
2018-12-16T13:42:56.710Z,52.10
2018-12-16T13:45:23.009Z,70.17
2018-12-16T13:47:49.417Z,52.33
2018-12-16T13:50:15.717Z,60.93
2018-12-16T13:52:41.909Z,67.03
2018-12-16T13:55:08.175Z,49.30
2018-12-16T13:57:35.211Z,53.07
2018-12-16T14:00:02.035Z,58.17
2018-12-16T14:02:28.328Z,53.87
2018-12-16T14:04:54.594Z,49.77
2018-12-16T14:07:21.075Z,52.33
2018-12-16T14:09:48.059Z,52.43
2018-12-16T14:12:14.288Z,47.77
2018-12-16T14:14:40.788Z,51.43
2018-12-16T14:17:06.997Z,53.67
2018-12-16T14:19:34.763Z,48.70
2018-12-16T14:22:01.102Z,47.97
2018-12-16T14:24:27.387Z,50.63
2018-12-16T14:26:53.778Z,51.07
2018-12-16T14:29:20.829Z,50.80
2018-12-16T14:31:47.151Z,50.53
2018-12-16T14:34:13.400Z,50.70
2018-12-16T14:36:39.667Z,48.57
2018-12-16T14:39:06.822Z,48.43
2018-12-16T14:41:33.204Z,51.63
2018-12-16T14:43:59.484Z,50.07
2018-12-16T14:46:26.544Z,49.10
2018-12-16T14:48:53.527Z,45.23
2018-12-16T14:51:19.842Z,48.10
2018-12-16T14:53:46.094Z,45.20
2018-12-16T14:56:12.320Z,49.00
2018-12-16T14:58:38.583Z,45.50
2018-12-16T15:01:05.636Z,49.00
2018-12-16T15:03:31.886Z,51.30
2018-12-16T15:05:58.151Z,44.47
2018-12-16T15:08:24.547Z,45.83
2018-12-16T15:10:50.768Z,45.87
2018-12-16T15:13:17.007Z,51.50
2018-12-16T15:15:43.301Z,47.60
2018-12-16T15:18:10.374Z,45.83
2018-12-16T15:20:36.619Z,49.17
2018-12-16T15:23:02.956Z,80.00
2018-12-16T15:25:32.935Z,49.33
2018-12-16T15:27:59.384Z,67.23
2018-12-16T15:30:25.959Z,42.03
2018-12-16T15:32:52.228Z,42.27
2018-12-16T15:35:19.262Z,41.50
2018-12-16T15:37:45.497Z,40.63
2018-12-16T15:40:11.737Z,43.47
2018-12-16T15:42:38.030Z,41.10
2018-12-16T15:45:05.344Z,37.73
2018-12-16T15:47:31.786Z,40.30
2018-12-16T15:49:58.064Z,43.27
2018-12-16T15:52:25.055Z,38.87
2018-12-16T15:54:51.322Z,40.93
2018-12-16T15:57:17.553Z,36.70
2018-12-16T15:59:43.852Z,35.13
2018-12-16T16:02:10.167Z,37.80
2018-12-16T16:04:36.434Z,34.53
2018-12-16T16:07:02.720Z,34.43
2018-12-16T16:09:29.036Z,38.03
2018-12-16T16:11:55.289Z,36.30
2018-12-16T16:14:21.529Z,32.10
2018-12-16T16:16:47.785Z,34.43
2018-12-16T16:19:14.120Z,32.07
2018-12-16T16:21:41.084Z,32.80
2018-12-16T16:24:07.333Z,32.43
2018-12-16T16:26:33.728Z,33.60
2018-12-16T16:29:00.712Z,35.67
2018-12-16T16:31:26.961Z,29.93
2018-12-16T16:33:53.274Z,31.23
2018-12-16T16:36:19.587Z,32.57
2018-12-16T16:38:45.939Z,32.90
2018-12-16T16:41:12.374Z,32.33
2018-12-16T16:43:38.686Z,33.70
2018-12-16T16:46:04.969Z,32.17
2018-12-16T16:48:31.999Z,27.30
2018-12-16T16:50:58.259Z,32.10
2018-12-16T16:53:24.700Z,31.50
2018-12-16T16:55:51.035Z,31.80
2018-12-16T16:58:17.245Z,29.53
2018-12-16T17:00:43.503Z,31.10
2018-12-16T17:03:09.903Z,29.10
2018-12-16T17:05:36.865Z,27.83
2018-12-16T17:08:03.143Z,29.33
2018-12-16T17:10:29.434Z,26.53
2018-12-16T17:12:55.659Z,28.83
2018-12-16T17:15:21.932Z,25.13
2018-12-16T17:17:48.191Z,29.43
2018-12-16T17:20:15.176Z,29.37
2018-12-16T17:22:41.422Z,28.73
2018-12-16T17:25:07.719Z,33.60
2018-12-16T17:27:34.031Z,27.23
2018-12-16T17:30:02.127Z,27.00
2018-12-16T17:32:26.611Z,25.93
2018-12-16T17:34:52.915Z,29.27
2018-12-16T17:37:19.995Z,30.13
2018-12-16T17:39:46.237Z,26.97
2018-12-16T17:42:12.564Z,28.33
2018-12-16T17:44:38.876Z,26.87
2018-12-16T17:47:05.123Z,30.37
2018-12-16T17:49:31.369Z,28.33
2018-12-16T17:51:57.591Z,26.83
2018-12-16T17:54:23.856Z,28.67
2018-12-16T17:56:50.087Z,32.07
2018-12-16T17:59:18.071Z,33.27
2018-12-16T18:01:42.650Z,32.80
2018-12-16T18:04:08.956Z,34.70
2018-12-16T18:06:36.686Z,30.30
2018-12-16T18:09:03.807Z,33.47
2018-12-16T18:11:30.065Z,30.00
2018-12-16T18:13:56.342Z,31.50
2018-12-16T18:16:23.373Z,43.60
2018-12-16T18:18:50.348Z,38.20
2018-12-16T18:21:16.607Z,36.77
2018-12-16T18:23:42.986Z,40.43
2018-12-16T18:26:09.969Z,40.00
2018-12-16T18:28:36.184Z,43.23
2018-12-16T18:31:02.494Z,48.30
2018-12-16T18:33:28.862Z,44.63
2018-12-16T18:35:55.074Z,47.23
2018-12-16T18:38:21.333Z,44.73
2018-12-16T18:40:47.635Z,42.50
2018-12-16T18:43:13.917Z,46.53
2018-12-16T18:45:41.032Z,50.57
2018-12-16T18:48:08.192Z,41.87
2018-12-16T18:50:34.724Z,42.50
2018-12-16T18:53:00.980Z,46.10
2018-12-16T18:55:27.222Z,44.17
2018-12-16T18:57:54.351Z,48.90
2018-12-16T19:00:21.358Z,54.73
2018-12-16T19:02:47.925Z,46.13
2018-12-16T19:05:14.245Z,47.37
2018-12-16T19:07:40.511Z,48.77
2018-12-16T19:10:06.801Z,54.70
2018-12-16T19:12:33.049Z,48.53
2018-12-16T19:15:00.078Z,43.87
2018-12-16T19:17:26.305Z,44.33
2018-12-16T19:19:52.588Z,44.90
2018-12-16T19:22:20.145Z,44.67
2018-12-16T19:24:46.417Z,43.93
2018-12-16T19:27:12.662Z,42.03
2018-12-16T19:29:38.995Z,40.10
2018-12-16T19:32:05.985Z,40.23
2018-12-16T19:34:32.257Z,36.30
2018-12-16T19:36:59.281Z,37.97
2018-12-16T19:39:25.537Z,36.83
2018-12-16T19:41:52.043Z,36.17
2018-12-16T19:44:18.414Z,37.23
2018-12-16T19:46:44.753Z,37.70
2018-12-16T19:49:11.000Z,41.23
2018-12-16T19:51:37.248Z,39.47
2018-12-16T19:54:03.639Z,40.93
2018-12-16T19:56:29.986Z,41.00
2018-12-16T19:58:56.440Z,39.43
2018-12-16T20:01:22.797Z,37.13
2018-12-16T20:03:55.595Z,37.30
2018-12-16T20:06:28.174Z,33.60
2018-12-16T20:08:55.165Z,34.33
2018-12-16T20:11:21.421Z,36.13
2018-12-16T20:13:48.319Z,32.40
2018-12-16T20:16:14.553Z,33.83
2018-12-16T20:18:41.426Z,41.03
2018-12-16T20:21:07.757Z,36.33
2018-12-16T20:23:34.032Z,36.53
2018-12-16T20:26:01.191Z,33.33
2018-12-16T20:28:27.788Z,37.40
2018-12-16T20:30:54.187Z,37.57
2018-12-16T20:33:20.494Z,34.20
2018-12-16T20:35:46.815Z,35.60
2018-12-16T20:38:13.099Z,34.60
2018-12-16T20:40:40.177Z,37.40
2018-12-16T20:43:06.565Z,37.30
2018-12-16T20:45:33.064Z,36.53
2018-12-16T20:48:00.159Z,33.83
2018-12-16T20:50:27.153Z,33.10
2018-12-16T20:52:53.469Z,31.27
2018-12-16T20:55:19.707Z,32.87
2018-12-16T20:57:45.951Z,35.03
2018-12-16T21:00:12.941Z,33.63
2018-12-16T21:02:40.337Z,29.53
2018-12-16T21:05:06.627Z,30.60
2018-12-16T21:07:33.464Z,30.60
2018-12-16T21:09:59.787Z,42.77
2018-12-16T21:12:32.134Z,42.27
2018-12-16T21:15:04.343Z,40.70
2018-12-16T21:17:37.434Z,34.03
2018-12-16T21:20:04.509Z,30.60
2018-12-16T21:22:31.025Z,26.93
2018-12-16T21:24:57.358Z,36.07
2018-12-16T21:27:26.151Z,32.20
2018-12-16T21:29:49.893Z,30.83
2018-12-16T21:32:16.121Z,34.47
2018-12-16T21:34:42.354Z,37.17
2018-12-16T21:37:08.824Z,34.43
2018-12-16T21:39:35.102Z,41.63
2018-12-16T21:42:01.341Z,40.00
2018-12-16T21:44:28.336Z,31.47
2018-12-16T21:46:54.604Z,31.70
2018-12-16T21:49:20.824Z,33.30
2018-12-16T21:51:47.049Z,34.27
2018-12-16T21:54:13.276Z,30.77
2018-12-16T21:56:39.514Z,35.43
2018-12-16T21:59:06.514Z,33.27
2018-12-16T22:01:32.798Z,32.20
2018-12-16T22:03:59.777Z,31.27
2018-12-16T22:06:26.101Z,28.23
2018-12-16T22:08:52.339Z,29.00
2018-12-16T22:11:18.602Z,27.13
2018-12-16T22:13:44.833Z,29.77
2018-12-16T22:16:11.061Z,34.33
2018-12-16T22:18:37.280Z,32.70
2018-12-16T22:21:03.504Z,31.63
2018-12-16T22:23:29.770Z,32.03
2018-12-16T22:25:57.579Z,29.97
2018-12-16T22:28:23.889Z,34.60
2018-12-16T22:30:50.147Z,33.43
2018-12-16T22:33:16.416Z,36.37
2018-12-16T22:35:43.408Z,30.00
2018-12-16T22:38:09.680Z,33.03
2018-12-16T22:40:35.971Z,33.90
2018-12-16T22:43:02.203Z,32.10
2018-12-16T22:45:29.256Z,37.97
2018-12-16T22:47:55.492Z,34.97
2018-12-16T22:50:22.484Z,32.90
2018-12-16T22:52:48.734Z,35.80
2018-12-16T22:55:15.016Z,40.30
2018-12-16T22:57:47.092Z,46.87
2018-12-16T23:00:08.303Z,34.90
2018-12-16T23:02:35.600Z,32.93
2018-12-16T23:05:02.276Z,32.33
2018-12-16T23:07:28.501Z,29.07
2018-12-16T23:09:54.739Z,24.80
2018-12-16T23:12:21.711Z,29.63
2018-12-16T23:14:47.925Z,30.20
2018-12-16T23:17:14.163Z,29.73
2018-12-16T23:19:40.480Z,30.70
2018-12-16T23:22:06.764Z,28.77
2018-12-16T23:24:33.818Z,36.17
2018-12-16T23:27:00.023Z,28.93
2018-12-16T23:29:26.345Z,27.10
2018-12-16T23:31:52.517Z,26.30
2018-12-16T23:34:19.072Z,26.83
2018-12-16T23:36:46.041Z,28.00
2018-12-16T23:39:12.288Z,26.67
2018-12-16T23:41:38.492Z,27.40
2018-12-16T23:44:04.703Z,28.17
2018-12-16T23:46:30.995Z,27.07
2018-12-16T23:48:57.921Z,25.00
2018-12-16T23:51:24.136Z,24.27
2018-12-16T23:53:50.359Z,27.63
2018-12-16T23:56:16.572Z,23.47
2018-12-16T23:58:42.791Z,24.73
